Time;durP1;ratioP1;P1;durP2;ratioP2;P2;SDS_P1;SDS_P2;PMS_P1;PMS_P2;Temp;Humidity;BMP_temperature;BMP_pressure;BME280_temperature;BME280_humidity;BME280_pressure;Samples;Min_cycle;Max_cycle;Signal;HPM_P1;HPM_P2
2023/07/05 00:00:32;;;;;;;24.67;15.88;;;;;;;;;;5073523;28;20552;-72
2023/07/05 00:02:59;;;;;;;22.02;15.88;;;;;;;;;;5073740;28;20111;-72
2023/07/05 00:05:25;;;;;;;22.58;15.18;;;;;;;;;;5073597;28;20111;-72
2023/07/05 00:07:52;;;;;;;20.95;14.57;;;;;;;;;;5073028;28;20052;-72
2023/07/05 00:10:18;;;;;;;22.40;16.05;;;;;;;;;;5073677;28;20027;-72
2023/07/05 00:12:44;;;;;;;25.10;15.27;;;;;;;;;;5073511;28;20459;-72
2023/07/05 00:15:10;;;;;;;22.05;15.13;;;;;;;;;;5073204;28;20077;-72
2023/07/05 00:17:37;;;;;;;20.48;15.60;;;;;;;;;;5072919;28;20115;-72
2023/07/05 00:20:04;;;;;;;23.27;15.30;;;;;;;;;;5073416;28;20386;-72
2023/07/05 00:22:31;;;;;;;22.90;15.18;;;;;;;;;;5073359;28;20027;-72
2023/07/05 00:24:57;;;;;;;22.08;15.93;;;;;;;;;;5073186;28;20471;-73
2023/07/05 00:27:23;;;;;;;24.25;15.90;;;;;;;;;;5072504;28;20036;-72
2023/07/05 00:29:49;;;;;;;23.67;16.38;;;;;;;;;;5073013;28;20024;-73
2023/07/05 00:32:15;;;;;;;20.95;16.25;;;;;;;;;;5074151;28;20052;-73
2023/07/05 00:34:42;;;;;;;20.63;14.30;;;;;;;;;;5073386;28;20025;-73
2023/07/05 00:37:07;;;;;;;20.33;15.10;;;;;;;;;;5072465;28;20020;-72
2023/07/05 00:39:34;;;;;;;21.27;15.35;;;;;;;;;;5072998;28;20062;-73
2023/07/05 00:42:00;;;;;;;19.98;14.52;;;;;;;;;;5073234;28;20475;-73
2023/07/05 00:44:27;;;;;;;22.20;15.85;;;;;;;;;;5073256;28;20028;-73
2023/07/05 00:46:57;;;;;;;21.52;15.43;;;;;;;;;;5072936;28;20025;-73
2023/07/05 00:49:25;;;;;;;22.63;15.98;;;;;;;;;;5072735;28;20024;-73
2023/07/05 00:51:56;;;;;;;22.42;15.30;;;;;;;;;;5072823;28;20029;-73
2023/07/05 00:54:26;;;;;;;21.92;15.55;;;;;;;;;;5073100;28;20028;-73
2023/07/05 00:57:19;;;;;;;18.83;14.07;;;;;;;;;;5073908;28;20039;-73
2023/07/05 00:59:54;;;;;;;19.38;15.07;;;;;;;;;;5070866;28;20072;-73
2023/07/05 01:02:20;;;;;;;21.00;14.25;;;;;;;;;;5072887;28;20036;-73
2023/07/05 01:04:46;;;;;;;23.20;15.45;;;;;;;;;;5072626;28;20471;-73
2023/07/05 01:07:12;;;;;;;21.08;16.83;;;;;;;;;;5070514;28;20055;-72
2023/07/05 01:09:38;;;;;;;22.00;15.57;;;;;;;;;;5072547;28;20027;-72
2023/07/05 01:12:04;;;;;;;22.60;15.02;;;;;;;;;;5070840;28;20029;-72
2023/07/05 01:14:46;;;;;;;22.70;16.70;;;;;;;;;;5072388;28;20048;-72
2023/07/05 01:17:17;;;;;;;21.48;15.65;;;;;;;;;;5071740;28;20502;-74
2023/07/05 01:19:49;;;;;;;21.83;15.60;;;;;;;;;;5072255;28;20111;-72
2023/07/05 01:22:22;;;;;;;24.02;15.50;;;;;;;;;;5072014;28;20031;-73
2023/07/05 01:24:57;;;;;;;20.90;15.73;;;;;;;;;;5072200;28;20032;-73
2023/07/05 01:27:44;;;;;;;21.17;15.77;;;;;;;;;;5069950;28;20029;-73
2023/07/05 01:30:23;;;;;;;22.92;14.48;;;;;;;;;;5071783;28;20020;-72
2023/07/05 01:32:55;;;;;;;21.35;15.30;;;;;;;;;;5072100;28;20039;-72
2023/07/05 01:35:23;;;;;;;19.65;14.85;;;;;;;;;;5071622;28;20028;-73
2023/07/05 01:37:49;;;;;;;21.33;15.38;;;;;;;;;;5071138;28;20095;-73
2023/07/05 01:40:21;;;;;;;21.02;15.00;;;;;;;;;;5071692;28;20539;-73
2023/07/05 01:42:52;;;;;;;21.13;15.23;;;;;;;;;;5071448;28;20024;-72
2023/07/05 01:45:21;;;;;;;21.47;14.57;;;;;;;;;;5071819;28;20449;-73
2023/07/05 01:47:52;;;;;;;21.75;15.18;;;;;;;;;;5070746;28;20354;-73
2023/07/05 01:50:26;;;;;;;20.85;15.38;;;;;;;;;;5071553;28;20032;-73
2023/07/05 01:53:13;;;;;;;21.13;15.10;;;;;;;;;;5071460;28;20082;-72
2023/07/05 01:55:59;;;;;;;22.38;15.98;;;;;;;;;;5071365;28;20402;-73
2023/07/05 01:58:28;;;;;;;20.13;14.88;;;;;;;;;;5063345;28;20493;-72
2023/07/05 02:00:56;;;;;;;20.98;15.23;;;;;;;;;;5071259;28;20030;-73
2023/07/05 02:03:23;;;;;;;21.33;15.00;;;;;;;;;;5071143;28;20040;-73
2023/07/05 02:05:49;;;;;;;20.17;15.02;;;;;;;;;;5071148;28;20021;-73
2023/07/05 02:08:15;;;;;;;20.95;14.63;;;;;;;;;;5070690;28;20107;-73
2023/07/05 02:10:41;;;;;;;22.85;15.48;;;;;;;;;;5071454;28;20101;-73
2023/07/05 02:13:10;;;;;;;21.08;14.65;;;;;;;;;;5071065;28;20025;-73
2023/07/05 02:15:38;;;;;;;20.75;14.15;;;;;;;;;;5071001;28;20039;-73
2023/07/05 02:18:04;;;;;;;21.90;15.70;;;;;;;;;;5069212;28;20021;-73
2023/07/05 02:20:31;;;;;;;21.85;16.23;;;;;;;;;;5071357;28;20031;-73
2023/07/05 02:22:57;;;;;;;19.38;14.88;;;;;;;;;;5072321;28;20016;-73
2023/07/05 02:25:23;;;;;;;17.65;14.30;;;;;;;;;;5071164;28;20134;-72
2023/07/05 02:27:49;;;;;;;21.30;14.95;;;;;;;;;;5070370;28;20032;-73
2023/07/05 02:30:16;;;;;;;23.90;15.15;;;;;;;;;;5071092;28;20470;-73
2023/07/05 02:32:42;;;;;;;21.55;14.93;;;;;;;;;;5070695;28;20070;-73
2023/07/05 02:35:08;;;;;;;23.48;15.55;;;;;;;;;;5070999;28;20032;-73
2023/07/05 02:37:34;;;;;;;20.40;15.45;;;;;;;;;;5070228;28;20430;-73
2023/07/05 02:40:00;;;;;;;22.85;15.13;;;;;;;;;;5069731;28;20017;-73
2023/07/05 02:42:26;;;;;;;21.73;16.15;;;;;;;;;;5070885;28;20024;-73
2023/07/05 02:44:52;;;;;;;20.83;16.23;;;;;;;;;;5069553;28;20024;-73
2023/07/05 02:47:19;;;;;;;20.00;14.63;;;;;;;;;;5069967;28;20035;-73
2023/07/05 02:49:46;;;;;;;21.90;14.85;;;;;;;;;;5069788;28;20024;-73
2023/07/05 02:52:12;;;;;;;22.05;15.98;;;;;;;;;;5070759;28;20068;-73
2023/07/05 02:54:38;;;;;;;21.13;15.57;;;;;;;;;;5070955;28;20024;-73
2023/07/05 02:57:04;;;;;;;19.55;15.05;;;;;;;;;;5070188;28;20520;-73
2023/07/05 02:59:30;;;;;;;19.55;14.82;;;;;;;;;;5071339;28;20028;-73
2023/07/05 03:01:56;;;;;;;21.58;15.70;;;;;;;;;;5070105;28;20052;-73
2023/07/05 03:04:22;;;;;;;19.63;14.82;;;;;;;;;;5070890;28;20024;-73
2023/07/05 03:06:48;;;;;;;22.88;15.50;;;;;;;;;;5070854;28;20486;-73
2023/07/05 03:09:14;;;;;;;28.75;19.15;;;;;;;;;;5070578;28;20063;-73
2023/07/05 03:11:42;;;;;;;26.23;17.20;;;;;;;;;;5070806;28;20024;-73
2023/07/05 03:14:08;;;;;;;23.50;15.68;;;;;;;;;;5070714;28;20036;-73
2023/07/05 03:16:34;;;;;;;31.27;21.33;;;;;;;;;;5067227;28;20082;-73
2023/07/05 03:19:00;;;;;;;43.80;27.05;;;;;;;;;;5065573;28;20501;-73
2023/07/05 03:21:26;;;;;;;26.95;17.08;;;;;;;;;;5054131;28;20112;-73
2023/07/05 03:23:52;;;;;;;21.85;15.68;;;;;;;;;;5054635;28;20025;-73
2023/07/05 03:26:18;;;;;;;22.92;15.90;;;;;;;;;;5054270;28;20447;-73
2023/07/05 03:28:44;;;;;;;22.80;15.32;;;;;;;;;;5052328;28;20060;-73
2023/07/05 03:31:12;;;;;;;21.70;15.60;;;;;;;;;;5054259;28;20096;-73
2023/07/05 03:33:38;;;;;;;24.63;15.68;;;;;;;;;;5053887;28;20083;-73
2023/07/05 03:36:06;;;;;;;25.63;16.42;;;;;;;;;;5052912;28;20553;-73
2023/07/05 03:38:33;;;;;;;21.95;15.30;;;;;;;;;;5064731;28;20020;-73
2023/07/05 03:41:07;;;;;;;20.92;14.38;;;;;;;;;;5074200;28;20032;-73
2023/07/05 03:43:35;;;;;;;21.15;14.45;;;;;;;;;;5072864;28;20028;-73
2023/07/05 03:46:02;;;;;;;22.83;14.43;;;;;;;;;;5073971;28;20024;-73
2023/07/05 03:48:29;;;;;;;21.63;15.40;;;;;;;;;;5073031;28;20479;-73
2023/07/05 03:50:58;;;;;;;23.60;14.88;;;;;;;;;;5073787;28;20028;-73
2023/07/05 03:53:25;;;;;;;19.45;15.07;;;;;;;;;;5073600;28;20520;-73
2023/07/05 03:55:51;;;;;;;18.52;14.52;;;;;;;;;;5070377;28;20025;-74
2023/07/05 03:58:17;;;;;;;21.25;14.38;;;;;;;;;;5069382;28;20029;-73
2023/07/05 04:00:44;;;;;;;25.38;15.55;;;;;;;;;;5073656;28;20028;-73
2023/07/05 04:03:10;;;;;;;20.50;14.70;;;;;;;;;;5073424;28;20082;-73
2023/07/05 04:05:36;;;;;;;23.38;15.90;;;;;;;;;;5074223;28;20025;-73
2023/07/05 04:08:02;;;;;;;21.17;14.93;;;;;;;;;;5072549;28;20024;-73
2023/07/05 04:10:28;;;;;;;21.15;14.57;;;;;;;;;;5073221;28;20032;-73
2023/07/05 04:12:54;;;;;;;17.75;13.52;;;;;;;;;;5073466;28;20029;-73
2023/07/05 04:15:20;;;;;;;17.92;14.50;;;;;;;;;;5073328;28;20504;-72
2023/07/05 04:17:46;;;;;;;20.13;13.90;;;;;;;;;;5072298;28;20033;-73
2023/07/05 04:20:12;;;;;;;26.92;14.32;;;;;;;;;;5073353;28;20020;-72
2023/07/05 04:22:39;;;;;;;20.25;14.90;;;;;;;;;;5073277;28;20062;-72
2023/07/05 04:25:06;;;;;;;20.50;13.90;;;;;;;;;;5073152;28;20032;-73
2023/07/05 04:27:32;;;;;;;17.80;14.50;;;;;;;;;;5071846;28;20067;-72
2023/07/05 04:29:58;;;;;;;15.98;13.70;;;;;;;;;;5073146;28;20070;-72
2023/07/05 04:32:24;;;;;;;17.17;13.88;;;;;;;;;;5072876;28;20394;-72
2023/07/05 04:34:50;;;;;;;17.05;13.55;;;;;;;;;;5072788;28;20032;-72
2023/07/05 04:37:16;;;;;;;19.63;15.45;;;;;;;;;;5072255;28;20029;-73
2023/07/05 04:39:42;;;;;;;17.90;14.75;;;;;;;;;;5072989;28;20035;-73
2023/07/05 04:42:08;;;;;;;19.05;14.27;;;;;;;;;;5072662;28;20493;-73
2023/07/05 04:44:35;;;;;;;16.38;14.00;;;;;;;;;;5071589;28;20077;-73
2023/07/05 04:47:01;;;;;;;16.25;14.30;;;;;;;;;;5072066;28;20509;-72
2023/07/05 04:49:27;;;;;;;19.63;15.63;;;;;;;;;;5070918;28;20127;-73
2023/07/05 04:51:53;;;;;;;19.02;14.95;;;;;;;;;;5072745;28;20115;-72
2023/07/05 04:54:19;;;;;;;19.10;14.40;;;;;;;;;;5072299;28;20041;-72
2023/07/05 04:56:45;;;;;;;22.90;15.52;;;;;;;;;;5072681;28;20020;-73
2023/07/05 04:59:11;;;;;;;25.38;16.52;;;;;;;;;;5071716;28;20017;-72
2023/07/05 05:01:38;;;;;;;19.25;14.32;;;;;;;;;;5072419;28;20020;-72
2023/07/05 05:04:04;;;;;;;22.88;15.73;;;;;;;;;;5071072;28;20120;-72
2023/07/05 05:06:30;;;;;;;22.08;16.63;;;;;;;;;;5072250;28;20186;-72
2023/07/05 05:08:56;;;;;;;24.95;15.10;;;;;;;;;;5069848;28;20544;-72
2023/07/05 05:11:22;;;;;;;20.50;15.27;;;;;;;;;;5072145;28;20025;-72
2023/07/05 05:13:49;;;;;;;19.92;14.85;;;;;;;;;;5072055;28;20078;-73
2023/07/05 05:16:15;;;;;;;23.42;15.35;;;;;;;;;;5071914;28;20029;-72
2023/07/05 05:18:43;;;;;;;23.70;16.67;;;;;;;;;;5071158;28;20100;-73
2023/07/05 05:21:09;;;;;;;21.65;15.73;;;;;;;;;;5072087;28;20107;-74
2023/07/05 05:23:36;;;;;;;20.50;15.77;;;;;;;;;;5071702;28;20023;-73
2023/07/05 05:26:02;;;;;;;26.27;16.80;;;;;;;;;;5070286;28;20028;-74
2023/07/05 05:28:29;;;;;;;23.98;16.40;;;;;;;;;;5070979;28;20083;-72
2023/07/05 05:31:08;;;;;;;22.30;16.70;;;;;;;;;;5071559;28;20111;-73
2023/07/05 05:33:35;;;;;;;20.27;15.45;;;;;;;;;;5071345;28;20024;-73
2023/07/05 05:36:01;;;;;;;21.70;17.38;;;;;;;;;;5071171;28;20039;-73
2023/07/05 05:38:27;;;;;;;21.55;16.48;;;;;;;;;;5068007;28;20135;-72
2023/07/05 05:41:00;;;;;;;26.30;16.27;;;;;;;;;;5070979;28;20017;-72
2023/07/05 05:43:26;;;;;;;22.42;15.95;;;;;;;;;;5071540;28;20453;-73
2023/07/05 05:45:52;;;;;;;25.10;16.35;;;;;;;;;;5071565;28;20053;-73
2023/07/05 05:48:18;;;;;;;24.45;16.35;;;;;;;;;;5069578;28;20090;-73
2023/07/05 05:50:44;;;;;;;20.77;16.30;;;;;;;;;;5071797;28;20032;-73
2023/07/05 05:53:11;;;;;;;23.25;16.35;;;;;;;;;;5070280;28;20056;-73
2023/07/05 05:55:37;;;;;;;24.33;15.50;;;;;;;;;;5071201;28;20513;-73
2023/07/05 05:58:04;;;;;;;19.27;15.75;;;;;;;;;;5070442;28;20032;-72
2023/07/05 06:00:30;;;;;;;25.02;16.83;;;;;;;;;;5071308;28;20016;-73
2023/07/05 06:02:57;;;;;;;19.33;15.10;;;;;;;;;;5071184;28;20031;-73
2023/07/05 06:05:23;;;;;;;21.85;15.32;;;;;;;;;;5069920;28;20506;-73
2023/07/05 06:07:49;;;;;;;21.85;14.98;;;;;;;;;;5070598;28;20040;-73
2023/07/05 06:10:15;;;;;;;18.73;14.65;;;;;;;;;;5071287;28;20521;-73
2023/07/05 06:12:41;;;;;;;19.48;15.63;;;;;;;;;;5069657;28;20111;-73
2023/07/05 06:15:11;;;;;;;20.30;15.20;;;;;;;;;;5071030;28;20025;-74
2023/07/05 06:17:37;;;;;;;19.95;14.57;;;;;;;;;;5068450;28;20036;-74
2023/07/05 06:20:05;;;;;;;18.25;14.73;;;;;;;;;;5071020;28;20056;-73
2023/07/05 06:22:32;;;;;;;22.27;14.63;;;;;;;;;;5071070;28;20047;-73
2023/07/05 06:24:58;;;;;;;16.63;14.20;;;;;;;;;;5070842;28;20070;-73
2023/07/05 06:27:24;;;;;;;19.15;14.27;;;;;;;;;;5070234;28;20115;-74
2023/07/05 06:29:50;;;;;;;17.33;15.45;;;;;;;;;;5068318;28;20429;-73
2023/07/05 06:32:16;;;;;;;18.25;13.63;;;;;;;;;;5061785;28;20104;-73
2023/07/05 06:34:42;;;;;;;17.83;14.40;;;;;;;;;;5050536;28;20123;-73
2023/07/05 06:37:08;;;;;;;19.02;15.00;;;;;;;;;;5048771;28;20638;-73
2023/07/05 06:39:34;;;;;;;18.35;14.60;;;;;;;;;;5050902;28;20053;-73
2023/07/05 06:42:00;;;;;;;17.33;14.63;;;;;;;;;;5051012;28;20037;-73
2023/07/05 06:44:26;;;;;;;17.63;13.63;;;;;;;;;;5050566;28;20040;-73
2023/07/05 06:46:52;;;;;;;20.20;14.07;;;;;;;;;;5050595;28;20060;-73
2023/07/05 06:49:19;;;;;;;21.95;14.43;;;;;;;;;;5049904;28;20057;-74
2023/07/05 06:51:45;;;;;;;19.80;14.35;;;;;;;;;;5053246;28;20052;-73
2023/07/05 06:54:11;;;;;;;20.13;14.80;;;;;;;;;;5054255;28;20079;-73
2023/07/05 06:56:37;;;;;;;22.33;14.68;;;;;;;;;;5054788;28;20096;-73
2023/07/05 06:59:03;;;;;;;21.75;14.32;;;;;;;;;;5052265;28;20023;-73
2023/07/05 07:01:29;;;;;;;20.40;14.85;;;;;;;;;;5055058;28;20111;-73
2023/07/05 07:03:55;;;;;;;22.73;14.07;;;;;;;;;;5054920;28;20025;-74
2023/07/05 07:06:21;;;;;;;18.77;14.45;;;;;;;;;;5054725;28;20041;-73
2023/07/05 07:08:47;;;;;;;18.65;13.02;;;;;;;;;;5055963;28;20399;-73
2023/07/05 07:11:13;;;;;;;17.88;12.30;;;;;;;;;;5057418;28;20494;-74
2023/07/05 07:13:39;;;;;;;15.02;10.10;;;;;;;;;;5060016;28;20033;-74
2023/07/05 07:16:08;;;;;;;11.57;5.85;;;;;;;;;;5055351;28;20033;-73
2023/07/05 07:18:36;;;;;;;7.38;5.47;;;;;;;;;;5055399;28;20095;-73
2023/07/05 07:21:02;;;;;;;7.72;5.05;;;;;;;;;;5055777;28;20043;-72
2023/07/05 07:23:28;;;;;;;7.95;5.38;;;;;;;;;;5053904;28;20471;-74
2023/07/05 07:26:05;;;;;;;9.07;5.78;;;;;;;;;;5054151;28;20033;-74
2023/07/05 07:28:31;;;;;;;7.85;5.50;;;;;;;;;;5053441;28;20028;-74
2023/07/05 07:30:58;;;;;;;7.78;5.13;;;;;;;;;;5054187;28;20032;-73
2023/07/05 07:33:24;;;;;;;6.50;5.20;;;;;;;;;;5053787;28;20017;-74
2023/07/05 07:35:50;;;;;;;7.72;5.47;;;;;;;;;;5053670;28;20059;-74
2023/07/05 07:38:17;;;;;;;5.63;5.03;;;;;;;;;;5051854;28;20447;-74
2023/07/05 07:40:43;;;;;;;7.90;6.10;;;;;;;;;;5054232;28;20107;-73
2023/07/05 07:43:09;;;;;;;6.47;5.25;;;;;;;;;;5053760;28;20021;-72
2023/07/05 07:45:36;;;;;;;7.22;5.10;;;;;;;;;;5052476;28;20025;-73
2023/07/05 07:48:02;;;;;;;7.65;5.15;;;;;;;;;;5053138;28;20040;-73
2023/07/05 07:50:28;;;;;;;8.77;5.45;;;;;;;;;;5053689;28;20028;-73
2023/07/05 07:52:54;;;;;;;8.27;5.68;;;;;;;;;;5053965;28;20024;-73
2023/07/05 07:55:20;;;;;;;7.88;5.60;;;;;;;;;;5053816;28;20021;-75
2023/07/05 07:57:46;;;;;;;7.13;6.07;;;;;;;;;;5053031;28;20016;-73
2023/07/05 08:00:13;;;;;;;7.15;5.40;;;;;;;;;;5052158;28;20501;-73
2023/07/05 08:02:39;;;;;;;8.07;5.55;;;;;;;;;;5052736;28;20025;-73
2023/07/05 08:05:15;;;;;;;8.55;6.18;;;;;;;;;;5053252;28;20383;-74
2023/07/05 08:07:41;;;;;;;7.05;5.80;;;;;;;;;;5052800;28;20029;-74
2023/07/05 08:10:07;;;;;;;9.80;5.50;;;;;;;;;;5052002;28;20033;-74
2023/07/05 08:12:34;;;;;;;7.35;5.57;;;;;;;;;;5053360;28;20317;-74
2023/07/05 08:15:00;;;;;;;6.85;5.85;;;;;;;;;;5053407;28;20021;-74
2023/07/05 08:17:28;;;;;;;6.60;5.50;;;;;;;;;;5052488;28;20033;-74
2023/07/05 08:19:54;;;;;;;6.95;4.55;;;;;;;;;;5051928;28;20080;-74
2023/07/05 08:22:20;;;;;;;7.45;5.63;;;;;;;;;;5053321;28;20472;-74
2023/07/05 08:24:46;;;;;;;6.38;4.72;;;;;;;;;;5053111;28;20064;-76
2023/07/05 08:27:12;;;;;;;7.90;5.45;;;;;;;;;;5052501;28;20108;-74
2023/07/05 08:29:38;;;;;;;6.88;4.82;;;;;;;;;;5052703;28;20029;-74
2023/07/05 08:32:04;;;;;;;5.40;4.80;;;;;;;;;;5052927;28;20024;-74
2023/07/05 08:34:30;;;;;;;6.38;4.80;;;;;;;;;;5052810;28;20483;-74
2023/07/05 08:36:56;;;;;;;7.47;5.13;;;;;;;;;;5052847;28;20391;-74
2023/07/05 08:39:22;;;;;;;7.57;4.90;;;;;;;;;;5052034;28;20184;-74
2023/07/05 08:41:58;;;;;;;8.10;4.63;;;;;;;;;;5052891;28;20098;-74
2023/07/05 08:44:24;;;;;;;8.45;4.80;;;;;;;;;;5052633;28;20029;-74
2023/07/05 08:46:58;;;;;;;8.10;4.43;;;;;;;;;;5052638;28;20044;-74
2023/07/05 08:49:30;;;;;;;6.40;4.78;;;;;;;;;;5052330;28;20056;-74
2023/07/05 08:51:59;;;;;;;6.38;4.78;;;;;;;;;;5052883;28;20108;-74
2023/07/05 08:54:31;;;;;;;11.23;5.90;;;;;;;;;;5052549;28;20025;-74
2023/07/05 08:57:01;;;;;;;7.97;5.25;;;;;;;;;;5052710;28;20052;-74
2023/07/05 08:59:30;;;;;;;5.85;4.72;;;;;;;;;;5052512;28;20479;-74
2023/07/05 09:01:57;;;;;;;5.13;4.18;;;;;;;;;;5052653;28;20052;-74
2023/07/05 09:04:25;;;;;;;5.15;4.00;;;;;;;;;;5052865;28;20108;-74
2023/07/05 09:06:56;;;;;;;5.13;4.18;;;;;;;;;;5051280;28;20127;-73
2023/07/05 09:09:48;;;;;;;5.25;3.60;;;;;;;;;;5052074;28;20091;-73
2023/07/05 09:12:18;;;;;;;5.63;3.80;;;;;;;;;;5036501;28;20075;-73
2023/07/05 09:14:56;;;;;;;5.05;3.72;;;;;;;;;;5050808;28;20025;-73
2023/07/05 09:17:22;;;;;;;7.70;3.78;;;;;;;;;;5051624;28;20109;-74
2023/07/05 09:19:59;;;;;;;6.45;3.92;;;;;;;;;;5051511;28;20017;-73
2023/07/05 09:22:27;;;;;;;5.88;4.28;;;;;;;;;;5052548;28;20021;-73
2023/07/05 09:24:55;;;;;;;6.03;4.38;;;;;;;;;;5052131;28;20106;-73
2023/07/05 09:27:21;;;;;;;5.60;4.30;;;;;;;;;;5051375;28;20025;-73
2023/07/05 09:29:47;;;;;;;6.60;4.75;;;;;;;;;;5051986;28;20025;-73
2023/07/05 09:32:17;;;;;;;8.15;4.78;;;;;;;;;;5051708;28;20387;-73
2023/07/05 09:34:55;;;;;;;3.65;2.70;;;;;;;;;;5051480;28;20447;-73
2023/07/05 09:37:26;;;;;;;4.10;2.70;;;;;;;;;;5051023;28;20052;-73
2023/07/05 09:39:58;;;;;;;9.07;3.67;;;;;;;;;;5051758;28;20021;-73
2023/07/05 09:42:32;;;;;;;3.92;3.22;;;;;;;;;;5051634;28;20021;-73
2023/07/05 09:44:58;;;;;;;5.30;3.70;;;;;;;;;;5051610;28;20429;-73
2023/07/05 09:47:24;;;;;;;3.20;2.50;;;;;;;;;;5051140;28;20033;-73
2023/07/05 09:49:50;;;;;;;6.70;3.38;;;;;;;;;;5051714;28;20441;-74
2023/07/05 09:52:18;;;;;;;4.50;3.50;;;;;;;;;;5051260;28;20045;-74
2023/07/05 09:54:44;;;;;;;10.48;5.47;;;;;;;;;;5051392;28;20147;-73
2023/07/05 09:57:12;;;;;;;6.15;5.18;;;;;;;;;;5050536;28;20105;-73
2023/07/05 09:59:38;;;;;;;6.25;5.30;;;;;;;;;;5051218;28;20036;-73
2023/07/05 10:02:12;;;;;;;7.07;5.55;;;;;;;;;;5051499;28;20219;-73
2023/07/05 10:04:48;;;;;;;6.20;5.05;;;;;;;;;;5051645;28;20029;-73
2023/07/05 10:07:15;;;;;;;7.43;5.70;;;;;;;;;;5050571;28;20039;-73
2023/07/05 10:09:54;;;;;;;8.40;6.25;;;;;;;;;;5051319;28;20074;-74
2023/07/05 10:12:20;;;;;;;6.82;5.50;;;;;;;;;;5051163;28;20052;-73
2023/07/05 10:14:53;;;;;;;7.43;6.00;;;;;;;;;;5051339;28;20173;-73
2023/07/05 10:17:19;;;;;;;6.10;5.47;;;;;;;;;;5050487;28;20017;-73
2023/07/05 10:19:55;;;;;;;6.90;5.00;;;;;;;;;;5051172;28;20017;-74
2023/07/05 10:22:34;;;;;;;5.78;4.10;;;;;;;;;;5051179;28;20045;-74
2023/07/05 10:25:05;;;;;;;5.35;3.95;;;;;;;;;;5051090;28;20029;-74
2023/07/05 10:27:32;;;;;;;4.82;3.72;;;;;;;;;;5048831;28;20053;-74
2023/07/05 10:30:08;;;;;;;3.78;3.15;;;;;;;;;;5051132;28;20035;-74
2023/07/05 10:32:36;;;;;;;3.67;2.60;;;;;;;;;;5050810;28;20025;-74
2023/07/05 10:35:02;;;;;;;2.55;2.35;;;;;;;;;;5050548;28;20029;-73
2023/07/05 10:37:34;;;;;;;4.28;2.83;;;;;;;;;;5069155;28;22012;-73
2023/07/05 10:40:09;;;;;;;12.93;2.92;;;;;;;;;;5070867;28;20027;-73
2023/07/05 10:42:40;;;;;;;2.53;2.33;;;;;;;;;;5070900;28;20409;-74
2023/07/05 10:45:09;;;;;;;3.85;2.00;;;;;;;;;;5070783;28;20059;-74
2023/07/05 10:47:36;;;;;;;3.30;2.10;;;;;;;;;;5069964;28;20032;-74
2023/07/05 10:50:05;;;;;;;4.10;2.35;;;;;;;;;;5052708;28;20028;-73
2023/07/05 10:52:32;;;;;;;3.22;1.85;;;;;;;;;;5070690;28;20025;-73
2023/07/05 10:55:07;;;;;;;4.63;1.92;;;;;;;;;;5070375;28;20021;-73
2023/07/05 10:57:35;;;;;;;3.13;1.60;;;;;;;;;;5070104;28;20104;-73
2023/07/05 11:00:09;;;;;;;4.53;2.20;;;;;;;;;;5070615;28;20393;-73
2023/07/05 11:02:56;;;;;;;3.63;1.85;;;;;;;;;;5070685;28;20028;-74
2023/07/05 11:05:23;;;;;;;2.05;1.77;;;;;;;;;;5070613;28;20505;-74
2023/07/05 11:07:50;;;;;;;1.80;1.55;;;;;;;;;;5069675;28;20482;-73
2023/07/05 11:10:16;;;;;;;2.80;1.80;;;;;;;;;;5070417;28;20020;-74
2023/07/05 11:12:42;;;;;;;2.50;1.40;;;;;;;;;;5070447;28;20470;-73
2023/07/05 11:15:13;;;;;;;5.78;2.22;;;;;;;;;;5070634;28;20039;-73
2023/07/05 11:17:40;;;;;;;4.28;1.88;;;;;;;;;;5069875;28;20044;-73
2023/07/05 11:20:25;;;;;;;4.07;1.73;;;;;;;;;;5070634;28;20036;-73
2023/07/05 11:22:51;;;;;;;4.00;1.80;;;;;;;;;;5070426;28;20031;-73
2023/07/05 11:25:18;;;;;;;2.17;1.90;;;;;;;;;;5070555;28;20032;-74
2023/07/05 11:27:53;;;;;;;2.60;1.90;;;;;;;;;;5069978;28;20024;-74
2023/07/05 11:30:38;;;;;;;2.72;2.03;;;;;;;;;;5070386;28;20439;-73
2023/07/05 11:33:10;;;;;;;3.70;1.55;;;;;;;;;;5070314;28;20059;-74
2023/07/05 11:35:44;;;;;;;3.20;1.80;;;;;;;;;;5070376;28;20522;-74
2023/07/05 11:38:10;;;;;;;3.78;1.77;;;;;;;;;;5070912;28;20047;-74
2023/07/05 11:40:55;;;;;;;3.50;1.90;;;;;;;;;;5074318;28;20020;-74
2023/07/05 11:43:23;;;;;;;5.05;2.00;;;;;;;;;;5055831;28;20376;-73
2023/07/05 11:45:49;;;;;;;5.43;1.90;;;;;;;;;;5074062;28;20021;-73
2023/07/05 11:48:34;;;;;;;3.67;2.30;;;;;;;;;;5073010;28;20040;-73
2023/07/05 11:51:00;;;;;;;4.18;2.53;;;;;;;;;;5073808;28;20117;-73
2023/07/05 11:53:30;;;;;;;3.00;2.05;;;;;;;;;;5055662;28;20055;-73
2023/07/05 11:55:56;;;;;;;3.88;2.35;;;;;;;;;;5073992;28;20036;-73
2023/07/05 11:58:26;;;;;;;3.35;2.00;;;;;;;;;;5054781;28;20029;-73
2023/07/05 12:00:54;;;;;;;5.10;2.17;;;;;;;;;;5073840;28;20399;-73
2023/07/05 12:03:22;;;;;;;3.63;2.33;;;;;;;;;;5055339;28;20020;-74
2023/07/05 12:06:14;;;;;;;2.90;2.30;;;;;;;;;;5073593;28;20040;-73
2023/07/05 12:08:43;;;;;;;4.03;2.10;;;;;;;;;;5069664;28;20471;-73
2023/07/05 12:11:11;;;;;;;3.25;2.15;;;;;;;;;;5073406;28;20025;-75
2023/07/05 12:13:37;;;;;;;4.35;2.75;;;;;;;;;;5073402;28;20033;-73
2023/07/05 12:16:05;;;;;;;5.85;2.13;;;;;;;;;;5073523;28;20062;-73
2023/07/05 12:18:32;;;;;;;4.55;2.05;;;;;;;;;;5072560;28;20028;-73
2023/07/05 12:20:58;;;;;;;6.60;1.50;;;;;;;;;;5073424;28;20487;-73
2023/07/05 12:23:28;;;;;;;4.32;1.90;;;;;;;;;;5072917;28;20077;-73
2023/07/05 12:25:55;;;;;;;4.95;1.85;;;;;;;;;;5073678;28;20375;-74
2023/07/05 12:28:22;;;;;;;3.97;1.63;;;;;;;;;;5072793;28;20561;-74
2023/07/05 12:30:49;;;;;;;5.00;1.75;;;;;;;;;;5073369;28;20044;-74
2023/07/05 12:33:21;;;;;;;2.97;1.55;;;;;;;;;;5072911;28;20497;-74
2023/07/05 12:35:48;;;;;;;6.30;2.47;;;;;;;;;;5072612;28;20052;-73
2023/07/05 12:38:17;;;;;;;4.38;1.70;;;;;;;;;;5072236;28;20020;-73
2023/07/05 12:40:50;;;;;;;5.47;1.88;;;;;;;;;;5073010;28;20600;-74
2023/07/05 12:43:22;;;;;;;2.97;1.65;;;;;;;;;;5072711;28;20028;-73
2023/07/05 12:45:48;;;;;;;5.53;1.88;;;;;;;;;;5072878;28;20378;-73
2023/07/05 12:48:25;;;;;;;4.60;1.40;;;;;;;;;;5071718;28;20033;-73
2023/07/05 12:51:01;;;;;;;7.93;2.22;;;;;;;;;;5072938;28;20568;-73
2023/07/05 12:53:27;;;;;;;5.00;1.70;;;;;;;;;;5072572;28;20089;-74
2023/07/05 12:55:55;;;;;;;2.78;2.08;;;;;;;;;;5072592;28;20040;-74
2023/07/05 12:58:22;;;;;;;5.57;1.70;;;;;;;;;;5071799;28;20028;-73
2023/07/05 13:00:52;;;;;;;3.58;2.03;;;;;;;;;;5072454;28;20020;-74
2023/07/05 13:03:19;;;;;;;4.78;2.17;;;;;;;;;;5072459;28;20023;-74
2023/07/05 13:05:45;;;;;;;3.15;1.73;;;;;;;;;;5072503;28;20025;-73
2023/07/05 13:08:14;;;;;;;4.18;1.60;;;;;;;;;;5071740;28;20039;-73
2023/07/05 13:10:40;;;;;;;6.80;1.83;;;;;;;;;;5072207;28;20028;-73
2023/07/05 13:13:33;;;;;;;4.40;2.03;;;;;;;;;;5072216;28;20093;-73
2023/07/05 13:16:17;;;;;;;5.20;1.63;;;;;;;;;;5069479;28;20101;-73
2023/07/05 13:18:54;;;;;;;3.63;1.80;;;;;;;;;;5071500;28;20460;-73
2023/07/05 13:21:20;;;;;;;4.95;2.08;;;;;;;;;;5072004;28;20021;-73
2023/07/05 13:23:47;;;;;;;3.65;2.00;;;;;;;;;;5071754;28;20023;-73
2023/07/05 13:26:26;;;;;;;2.50;1.80;;;;;;;;;;5071894;28;20105;-73
2023/07/05 13:28:53;;;;;;;5.00;1.77;;;;;;;;;;5071175;28;20063;-73
2023/07/05 13:31:20;;;;;;;2.97;1.80;;;;;;;;;;5071917;28;20048;-72
2023/07/05 13:33:46;;;;;;;2.22;1.52;;;;;;;;;;5071795;28;20039;-74
2023/07/05 13:36:12;;;;;;;3.05;1.83;;;;;;;;;;5071660;28;20359;-74
2023/07/05 13:38:39;;;;;;;5.25;1.73;;;;;;;;;;5071016;28;20028;-73
2023/07/05 13:41:05;;;;;;;4.38;1.83;;;;;;;;;;5071856;28;20474;-73
2023/07/05 13:43:33;;;;;;;4.53;1.88;;;;;;;;;;5071519;28;20047;-73
2023/07/05 13:46:01;;;;;;;2.42;1.70;;;;;;;;;;5071701;28;20040;-73
2023/07/05 13:48:27;;;;;;;3.10;1.67;;;;;;;;;;5070951;28;20161;-73
2023/07/05 13:50:53;;;;;;;1.40;1.30;;;;;;;;;;5053501;28;20020;-73
2023/07/05 13:53:21;;;;;;;4.20;1.73;;;;;;;;;;5071304;28;20513;-73
2023/07/05 13:55:47;;;;;;;1.60;1.42;;;;;;;;;;5071184;28;20029;-73
2023/07/05 13:58:14;;;;;;;3.05;1.40;;;;;;;;;;5070872;28;20021;-73
2023/07/05 14:00:41;;;;;;;2.55;1.50;;;;;;;;;;5070967;28;20059;-74
2023/07/05 14:03:07;;;;;;;5.88;2.13;;;;;;;;;;5071083;28;20028;-73
2023/07/05 14:05:34;;;;;;;2.08;1.50;;;;;;;;;;5071292;28;20024;-73
2023/07/05 14:08:02;;;;;;;2.25;1.55;;;;;;;;;;5070594;28;20021;-73
2023/07/05 14:10:28;;;;;;;1.58;1.45;;;;;;;;;;5053291;28;20036;-73
2023/07/05 14:12:55;;;;;;;4.65;1.67;;;;;;;;;;5071344;28;20336;-74
2023/07/05 14:15:27;;;;;;;2.53;1.63;;;;;;;;;;5071031;28;20067;-73
2023/07/05 14:17:53;;;;;;;3.15;1.70;;;;;;;;;;5070125;28;20060;-74
2023/07/05 14:20:20;;;;;;;3.22;1.27;;;;;;;;;;5071290;28;20020;-74
2023/07/05 14:22:46;;;;;;;2.28;1.50;;;;;;;;;;5071109;28;20082;-74
2023/07/05 14:25:18;;;;;;;3.22;1.92;;;;;;;;;;5052529;23;20080;-78
2023/07/05 14:27:44;;;;;;;4.82;1.88;;;;;;;;;;5014319;28;20084;-78
2023/07/05 14:30:10;;;;;;;3.97;2.45;;;;;;;;;;4997190;28;20021;-78
2023/07/05 14:32:36;;;;;;;1.95;1.73;;;;;;;;;;5014262;28;20267;-77
2023/07/05 14:35:02;;;;;;;3.40;1.60;;;;;;;;;;5012034;28;20065;-79
2023/07/05 14:37:31;;;;;;;4.43;1.33;;;;;;;;;;5012538;28;20499;-79